createdAt,value
2023-05-10T00:00:15.542Z,51.20
2023-05-10T00:05:20.237Z,51.20
2023-05-10T00:10:23.190Z,51.20
2023-05-10T00:15:26.211Z,51.10
2023-05-10T00:20:30.743Z,51.10
2023-05-10T00:25:33.624Z,51.10
2023-05-10T00:30:36.560Z,51.10
2023-05-10T00:35:41.352Z,51.10
2023-05-10T00:40:45.004Z,51.10
2023-05-10T00:45:48.276Z,51.10
2023-05-10T00:50:52.668Z,51.10
2023-05-10T00:55:55.649Z,51.10
2023-05-10T01:00:59.792Z,51.00
2023-05-10T01:06:04.352Z,51.10
2023-05-10T01:11:07.376Z,51.00
2023-05-10T01:16:10.513Z,51.00
2023-05-10T01:21:29.768Z,51.00
2023-05-10T01:27:05.947Z,51.00
2023-05-10T01:32:22.992Z,51.00
2023-05-10T01:37:32.917Z,51.10
2023-05-10T01:42:42.450Z,51.00
2023-05-10T01:47:52.314Z,51.00
2023-05-10T01:52:57.183Z,51.00
2023-05-10T01:58:06.668Z,51.00
2023-05-10T02:03:12.404Z,50.90
2023-05-10T02:08:16.760Z,51.00
2023-05-10T02:13:21.432Z,51.00
2023-05-10T02:18:27.782Z,51.00
2023-05-10T02:23:31.631Z,50.90
2023-05-10T02:28:35.388Z,51.00
2023-05-10T02:33:41.886Z,50.90
2023-05-10T02:38:46.260Z,51.00
2023-05-10T02:43:50.326Z,51.00
2023-05-10T02:48:54.757Z,50.90
2023-05-10T02:53:59.349Z,50.90
2023-05-10T02:59:02.340Z,50.90
2023-05-10T03:04:07.500Z,50.90
2023-05-10T03:09:12.169Z,50.90
2023-05-10T03:14:26.157Z,50.90
2023-05-10T03:19:34.992Z,50.90
2023-05-10T03:24:41.421Z,50.90
2023-05-10T03:29:45.610Z,50.90
2023-05-10T03:34:49.837Z,50.90
2023-05-10T03:39:52.749Z,50.90
2023-05-10T03:44:55.873Z,50.90
2023-05-10T03:50:00.212Z,50.90
2023-05-10T03:55:04.563Z,50.90
2023-05-10T04:00:09.184Z,50.90
2023-05-10T04:05:13.626Z,50.90
2023-05-10T04:10:17.524Z,50.90
2023-05-10T04:15:20.924Z,50.90
2023-05-10T04:20:25.305Z,50.90
2023-05-10T04:25:28.221Z,51.10
2023-05-10T04:30:31.128Z,50.90
2023-05-10T04:35:35.386Z,50.80
2023-05-10T04:40:38.273Z,50.90
2023-05-10T04:45:41.223Z,50.90
2023-05-10T04:50:45.441Z,50.80
2023-05-10T04:55:48.955Z,50.80
2023-05-10T05:00:51.886Z,50.80
2023-05-10T05:05:56.147Z,50.80
2023-05-10T05:11:00.307Z,50.70
2023-05-10T05:16:03.730Z,50.70
2023-05-10T05:21:18.039Z,50.70
2023-05-10T05:26:20.945Z,50.70
2023-05-10T05:31:23.878Z,50.70
2023-05-10T05:36:28.195Z,50.70
2023-05-10T05:41:31.086Z,50.60
2023-05-10T05:46:34.043Z,50.70
2023-05-10T05:51:38.290Z,50.70
2023-05-10T05:56:41.204Z,50.70
2023-05-10T06:01:44.130Z,50.70
2023-05-10T06:06:48.496Z,50.60
2023-05-10T06:11:51.397Z,50.70
2023-05-10T06:16:54.320Z,50.70
2023-05-10T06:21:58.632Z,50.60
2023-05-10T06:27:01.632Z,50.60
2023-05-10T06:32:04.566Z,50.60
2023-05-10T06:37:08.865Z,50.70
2023-05-10T06:42:11.804Z,50.60
2023-05-10T06:47:14.690Z,50.70
2023-05-10T06:52:18.978Z,50.60
2023-05-10T06:57:31.250Z,50.60
2023-05-10T07:02:35.186Z,50.60
2023-05-10T07:07:39.603Z,50.60
2023-05-10T07:12:42.644Z,50.60
2023-05-10T07:17:46.490Z,50.60
2023-05-10T07:22:50.856Z,50.60
2023-05-10T07:27:53.818Z,50.60
2023-05-10T07:32:56.768Z,50.60
2023-05-10T07:38:01.032Z,50.60
2023-05-10T07:43:04.154Z,50.60
2023-05-10T07:48:07.283Z,50.60
2023-05-10T07:53:11.950Z,50.60
2023-05-10T07:58:14.857Z,50.70
2023-05-10T08:03:18.040Z,50.70
2023-05-10T08:08:23.760Z,50.70
2023-05-10T08:13:26.824Z,50.60
2023-05-10T08:18:29.809Z,50.60
2023-05-10T08:23:34.281Z,50.50
2023-05-10T08:28:37.165Z,50.20
2023-05-10T08:33:41.515Z,50.30
2023-05-10T08:38:46.620Z,50.40
2023-05-10T08:43:49.755Z,50.40
2023-05-10T08:48:53.496Z,50.40
2023-05-10T08:53:58.175Z,50.40
2023-05-10T08:59:01.391Z,50.40
2023-05-10T09:04:05.396Z,50.40
2023-05-10T09:09:09.882Z,50.30
2023-05-10T09:14:14.430Z,50.30
2023-05-10T09:19:17.322Z,50.30
2023-05-10T09:24:21.517Z,50.30
2023-05-10T09:29:24.629Z,50.30
2023-05-10T09:34:33.009Z,50.20
2023-05-10T09:39:38.547Z,50.20
2023-05-10T09:44:41.930Z,50.10
2023-05-10T09:49:44.802Z,49.80
2023-05-10T09:54:55.759Z,49.90
2023-05-10T09:59:59.402Z,50.10
2023-05-10T10:05:03.735Z,50.10
2023-05-10T10:10:12.522Z,50.00
2023-05-10T10:15:16.855Z,50.00
2023-05-10T10:20:21.598Z,50.00
2023-05-10T10:25:26.834Z,50.00
2023-05-10T10:30:33.567Z,50.00
2023-05-10T10:35:37.106Z,50.00
2023-05-10T10:40:41.641Z,50.00
2023-05-10T10:45:44.507Z,49.90
2023-05-10T10:50:47.938Z,49.90
2023-05-10T10:56:04.083Z,49.90
2023-05-10T11:01:15.099Z,49.90
2023-05-10T11:06:32.340Z,49.90
2023-05-10T11:11:37.042Z,49.80
2023-05-10T11:16:44.540Z,49.80
2023-05-10T11:21:49.803Z,49.80
2023-05-10T11:26:55.366Z,49.80
2023-05-10T11:32:00.258Z,49.70
2023-05-10T11:37:03.509Z,49.80
2023-05-10T11:42:10.444Z,49.80
2023-05-10T11:47:14.309Z,49.80
2023-05-10T11:52:17.156Z,49.70
2023-05-10T11:57:22.656Z,49.70
2023-05-10T12:02:26.129Z,49.70
2023-05-10T12:07:29.067Z,49.70
2023-05-10T12:12:39.938Z,49.60
2023-05-10T12:17:43.524Z,49.60
2023-05-10T12:22:48.298Z,49.60
2023-05-10T12:27:53.407Z,49.60
2023-05-10T12:33:01.727Z,49.50
2023-05-10T12:38:26.806Z,49.50
2023-05-10T12:43:31.322Z,49.60
2023-05-10T12:48:34.970Z,49.50
2023-05-10T12:53:38.246Z,49.50
2023-05-10T12:58:42.500Z,49.50
2023-05-10T13:03:45.407Z,49.40
2023-05-10T13:08:48.232Z,49.40
2023-05-10T13:13:53.640Z,49.40
2023-05-10T13:18:56.491Z,49.40
2023-05-10T13:23:59.315Z,49.50
2023-05-10T13:29:03.565Z,49.40
2023-05-10T13:34:07.425Z,49.40
2023-05-10T13:39:10.407Z,49.40
2023-05-10T13:44:16.446Z,49.50
2023-05-10T13:49:19.295Z,49.40
2023-05-10T13:54:23.166Z,50.10
2023-05-10T13:59:27.385Z,49.40
2023-05-10T14:04:30.631Z,49.40
2023-05-10T14:09:33.504Z,49.40
2023-05-10T14:14:37.707Z,49.40
2023-05-10T14:19:40.596Z,49.40
2023-05-10T14:24:44.450Z,49.40
2023-05-10T14:29:49.718Z,49.40
2023-05-10T14:34:52.555Z,49.40
2023-05-10T14:39:55.591Z,49.40
2023-05-10T14:44:59.776Z,49.40
2023-05-10T14:50:02.926Z,49.50
2023-05-10T14:55:06.602Z,49.50
2023-05-10T15:00:12.339Z,49.50
2023-05-10T15:05:16.342Z,49.50
2023-05-10T15:10:19.980Z,49.60
2023-05-10T15:15:24.167Z,49.50
2023-05-10T15:20:26.985Z,49.50
2023-05-10T15:25:30.086Z,48.90
2023-05-10T15:30:34.387Z,49.30
2023-05-10T15:35:39.235Z,49.40
2023-05-10T15:40:42.077Z,49.40
2023-05-10T15:45:46.308Z,49.40
2023-05-10T15:50:49.143Z,49.40
2023-05-10T15:55:52.321Z,49.50
2023-05-10T16:00:57.710Z,49.50
2023-05-10T16:06:00.867Z,49.50
2023-05-10T16:11:05.052Z,49.50
2023-05-10T16:16:09.750Z,49.60
2023-05-10T16:21:12.676Z,49.60
2023-05-10T16:26:15.534Z,49.60
2023-05-10T16:31:20.770Z,49.60
2023-05-10T16:36:23.643Z,49.60
2023-05-10T16:41:26.802Z,49.60
2023-05-10T16:46:31.089Z,49.70
2023-05-10T16:51:33.984Z,49.70
2023-05-10T16:56:36.853Z,49.70
2023-05-10T17:01:41.092Z,49.70
2023-05-10T17:06:44.165Z,49.70
2023-05-10T17:11:47.640Z,49.60
2023-05-10T17:16:52.860Z,49.60
2023-05-10T17:21:55.999Z,49.70
2023-05-10T17:27:00.551Z,49.70
2023-05-10T17:32:05.226Z,49.70
2023-05-10T17:37:09.950Z,49.70
2023-05-10T17:42:13.750Z,49.70
2023-05-10T17:47:18.792Z,49.70
2023-05-10T17:52:21.757Z,49.60
2023-05-10T17:57:25.135Z,49.50
2023-05-10T18:02:29.408Z,49.70
2023-05-10T18:07:32.578Z,49.70
2023-05-10T18:12:35.470Z,49.70
2023-05-10T18:17:39.892Z,49.70
2023-05-10T18:22:43.442Z,49.70
2023-05-10T18:27:46.336Z,49.70
2023-05-10T18:32:50.665Z,49.70
2023-05-10T18:37:53.685Z,49.70
2023-05-10T18:42:56.825Z,49.70
2023-05-10T18:48:01.160Z,49.60
2023-05-10T18:53:04.527Z,49.70
2023-05-10T18:58:07.422Z,49.60
2023-05-10T19:03:11.898Z,49.60
2023-05-10T19:08:14.946Z,49.60
2023-05-10T19:13:18.059Z,49.50
2023-05-10T19:18:22.610Z,49.50
2023-05-10T19:23:28.813Z,49.50
2023-05-10T19:28:32.229Z,49.50
2023-05-10T19:33:36.550Z,49.50
2023-05-10T19:38:39.619Z,49.50
2023-05-10T19:43:42.481Z,49.40
2023-05-10T19:48:50.125Z,49.40
2023-05-10T19:53:53.014Z,49.40
2023-05-10T19:58:56.050Z,49.50
2023-05-10T20:04:00.409Z,49.40
2023-05-10T20:09:03.375Z,49.40
2023-05-10T20:14:06.549Z,49.40
2023-05-10T20:19:11.775Z,49.40
2023-05-10T20:24:14.803Z,49.40
2023-05-10T20:29:17.694Z,49.40
2023-05-10T20:34:21.949Z,49.40
2023-05-10T20:39:24.913Z,49.40
2023-05-10T20:44:27.869Z,49.40
2023-05-10T20:49:32.120Z,49.40
2023-05-10T20:54:35.028Z,50.00
2023-05-10T20:59:37.998Z,49.40
2023-05-10T21:04:42.233Z,49.40
2023-05-10T21:09:45.218Z,49.40
2023-05-10T21:14:48.403Z,49.40
2023-05-10T21:19:52.607Z,49.40
2023-05-10T21:24:55.561Z,49.40
2023-05-10T21:29:58.469Z,49.40
2023-05-10T21:35:02.807Z,49.40
2023-05-10T21:40:06.706Z,49.40
2023-05-10T21:45:10.002Z,49.40
2023-05-10T21:50:14.231Z,49.40
2023-05-10T21:55:18.172Z,49.40
2023-05-10T22:00:21.129Z,49.40
2023-05-10T22:05:25.433Z,49.40
2023-05-10T22:10:28.328Z,49.40
2023-05-10T22:15:34.141Z,49.40
2023-05-10T22:20:39.859Z,49.40
2023-05-10T22:25:42.792Z,49.40
2023-05-10T22:30:45.836Z,50.00
2023-05-10T22:35:50.115Z,49.40
2023-05-10T22:40:53.007Z,49.40
2023-05-10T22:45:55.925Z,49.40
2023-05-10T22:51:00.205Z,49.40
2023-05-10T22:56:03.358Z,49.30
2023-05-10T23:01:06.394Z,49.40
2023-05-10T23:06:10.770Z,49.40
2023-05-10T23:11:13.720Z,49.40
2023-05-10T23:16:16.682Z,49.40
2023-05-10T23:21:20.925Z,49.40
2023-05-10T23:26:23.793Z,49.40
2023-05-10T23:31:26.749Z,49.40
2023-05-10T23:36:31.825Z,49.40
2023-05-10T23:41:34.756Z,49.40
2023-05-10T23:46:37.706Z,49.30
2023-05-10T23:51:41.980Z,49.90
2023-05-10T23:56:44.973Z,49.30
